Time;durP1;ratioP1;P1;durP2;ratioP2;P2;SDS_P1;SDS_P2;PMS_P1;PMS_P2;Temp;Humidity;BMP_temperature;BMP_pressure;BME280_temperature;BME280_humidity;BME280_pressure;Samples;Min_cycle;Max_cycle;Signal;HPM_P1;HPM_P2
2023/09/28 00:01:16;;;;;;;7.60;4.00;;;;;;;;;;4988153;28;94426;-66
2023/09/28 00:03:45;;;;;;;5.28;3.85;;;;;;;;;;4985869;28;92994;-65
2023/09/28 00:06:12;;;;;;;8.13;3.80;;;;;;;;;;4994590;28;94121;-66
2023/09/28 00:08:39;;;;;;;11.95;3.97;;;;;;;;;;4991262;28;92467;-66
2023/09/28 00:11:05;;;;;;;7.03;3.40;;;;;;;;;;4991032;28;93269;-66
2023/09/28 00:13:32;;;;;;;9.52;4.20;;;;;;;;;;4992424;28;91623;-67
2023/09/28 00:15:58;;;;;;;8.38;4.00;;;;;;;;;;4988964;28;92735;-66
2023/09/28 00:18:25;;;;;;;5.72;4.10;;;;;;;;;;4986896;28;94289;-67
2023/09/28 00:20:52;;;;;;;8.73;3.97;;;;;;;;;;4987874;28;95888;-61
2023/09/28 00:23:18;;;;;;;17.38;4.55;;;;;;;;;;4988785;28;92539;-61
2023/09/28 00:25:46;;;;;;;4.85;3.70;;;;;;;;;;4983152;28;94238;-62
2023/09/28 00:28:13;;;;;;;6.90;3.85;;;;;;;;;;4993352;28;94452;-62
2023/09/28 00:30:39;;;;;;;10.80;3.97;;;;;;;;;;4991388;28;93222;-61
2023/09/28 00:33:06;;;;;;;9.32;4.10;;;;;;;;;;4991900;28;93413;-61
2023/09/28 00:35:32;;;;;;;11.95;3.88;;;;;;;;;;4989798;28;92596;-62
2023/09/28 00:37:59;;;;;;;5.10;3.85;;;;;;;;;;4990131;28;93169;-61
2023/09/28 00:40:28;;;;;;;7.05;3.65;;;;;;;;;;4991254;28;93857;-62
2023/09/28 00:42:55;;;;;;;7.00;3.60;;;;;;;;;;4991413;28;92556;-62
2023/09/28 00:45:22;;;;;;;6.15;3.63;;;;;;;;;;4990904;28;94819;-61
2023/09/28 00:48:09;;;;;;;4.85;3.45;;;;;;;;;;4991997;28;94412;-62
2023/09/28 00:50:36;;;;;;;6.60;3.72;;;;;;;;;;4993706;28;92564;-61
2023/09/28 00:53:04;;;;;;;5.65;3.28;;;;;;;;;;4992518;28;93491;-62
2023/09/28 00:55:32;;;;;;;10.07;3.40;;;;;;;;;;4992218;28;92896;-62
2023/09/28 00:58:02;;;;;;;5.85;3.15;;;;;;;;;;4991906;28;92733;-62
2023/09/28 01:00:29;;;;;;;;;;;;;;;;;;4994602;28;93177;-59
2023/09/28 01:02:57;;;;;;;5.78;3.38;;;;;;;;;;4992474;28;116675;-61
2023/09/28 01:05:31;;;;;;;10.82;3.42;;;;;;;;;;4993688;28;92525;-62
2023/09/28 01:08:08;;;;;;;5.55;3.50;;;;;;;;;;4992886;28;93471;-62
2023/09/28 01:10:35;;;;;;;5.55;3.20;;;;;;;;;;4993977;28;95182;-64
2023/09/28 01:13:07;;;;;;;9.70;3.63;;;;;;;;;;4990928;28;93683;-61
2023/09/28 01:15:35;;;;;;;6.25;3.42;;;;;;;;;;4989283;28;93873;-61
2023/09/28 01:18:03;;;;;;;5.35;3.78;;;;;;;;;;4992518;28;94130;-62
2023/09/28 01:20:37;;;;;;;5.22;3.72;;;;;;;;;;4991900;28;94260;-62
2023/09/28 01:23:04;;;;;;;8.15;3.63;;;;;;;;;;4991117;28;92450;-62
2023/09/28 01:25:31;;;;;;;6.25;3.40;;;;;;;;;;4990782;28;94129;-62
2023/09/28 01:27:58;;;;;;;4.57;3.60;;;;;;;;;;4991325;28;92669;-62
2023/09/28 01:30:25;;;;;;;11.70;3.78;;;;;;;;;;4994943;28;92572;-62
2023/09/28 01:32:52;;;;;;;7.38;3.80;;;;;;;;;;5000193;28;94304;-62
2023/09/28 01:35:20;;;;;;;7.47;3.53;;;;;;;;;;4992627;28;94865;-61
2023/09/28 01:37:49;;;;;;;10.35;3.75;;;;;;;;;;4990787;28;95532;-62
2023/09/28 01:40:16;;;;;;;6.00;3.57;;;;;;;;;;4990938;28;93585;-62
2023/09/28 01:42:43;;;;;;;10.35;3.58;;;;;;;;;;4992071;28;92531;-62
2023/09/28 01:45:11;;;;;;;8.95;3.80;;;;;;;;;;4992163;28;93090;-61
2023/09/28 01:47:38;;;;;;;4.65;3.30;;;;;;;;;;4994725;28;94425;-62
2023/09/28 01:50:05;;;;;;;8.45;3.53;;;;;;;;;;4993971;28;92624;-62
2023/09/28 01:52:31;;;;;;;6.70;3.25;;;;;;;;;;4995165;28;93897;-62
2023/09/28 01:54:58;;;;;;;7.13;3.58;;;;;;;;;;4997264;28;94448;-60
2023/09/28 01:57:24;;;;;;;8.75;3.72;;;;;;;;;;4993672;28;93282;-61
2023/09/28 01:59:51;;;;;;;6.78;3.50;;;;;;;;;;4990396;28;95780;-62
2023/09/28 02:02:17;;;;;;;6.97;3.75;;;;;;;;;;4993440;28;92618;-62
2023/09/28 02:04:44;;;;;;;9.32;4.15;;;;;;;;;;4993360;28;93104;-61
2023/09/28 02:07:10;;;;;;;9.20;3.75;;;;;;;;;;4994080;28;94472;-61
2023/09/28 02:09:36;;;;;;;9.25;3.60;;;;;;;;;;4991953;28;92528;-61
2023/09/28 02:12:03;;;;;;;6.13;3.17;;;;;;;;;;4991321;28;93213;-61
2023/09/28 02:14:30;;;;;;;9.82;3.85;;;;;;;;;;4992603;28;93396;-62
2023/09/28 02:16:56;;;;;;;8.23;3.90;;;;;;;;;;4995954;28;91788;-61
2023/09/28 02:19:22;;;;;;;5.70;3.60;;;;;;;;;;4989495;28;95260;-61
2023/09/28 02:21:50;;;;;;;5.65;4.03;;;;;;;;;;4993344;28;93031;-61
2023/09/28 02:24:17;;;;;;;9.32;3.20;;;;;;;;;;4993132;28;94839;-61
2023/09/28 02:26:47;;;;;;;4.30;3.70;;;;;;;;;;4993672;28;94464;-61
2023/09/28 02:29:13;;;;;;;5.82;3.40;;;;;;;;;;4991698;28;94019;-61
2023/09/28 02:31:43;;;;;;;9.52;3.60;;;;;;;;;;4992531;28;92609;-61
2023/09/28 02:34:09;;;;;;;7.40;4.03;;;;;;;;;;4992594;28;94256;-61
2023/09/28 02:36:36;;;;;;;5.55;3.60;;;;;;;;;;4989167;28;92491;-61
2023/09/28 02:39:12;;;;;;;10.63;3.90;;;;;;;;;;4995722;28;93108;-61
2023/09/28 02:41:39;;;;;;;12.85;3.83;;;;;;;;;;4993508;28;91903;-61
2023/09/28 02:44:05;;;;;;;8.70;3.90;;;;;;;;;;4993462;28;93469;-61
2023/09/28 02:46:32;;;;;;;9.52;3.85;;;;;;;;;;4995832;28;92556;-62
2023/09/28 02:48:58;;;;;;;8.25;4.22;;;;;;;;;;4990625;28;95188;-61
2023/09/28 02:51:25;;;;;;;5.88;3.92;;;;;;;;;;4989148;28;95486;-62
2023/09/28 02:53:51;;;;;;;11.45;4.20;;;;;;;;;;4988613;28;93418;-60
2023/09/28 02:56:18;;;;;;;6.72;3.70;;;;;;;;;;4990203;28;92526;-60
2023/09/28 02:58:45;;;;;;;9.05;3.63;;;;;;;;;;4992533;28;93174;-61
2023/09/28 03:01:12;;;;;;;10.00;4.28;;;;;;;;;;4993501;28;94045;-61
2023/09/28 03:03:38;;;;;;;10.30;4.03;;;;;;;;;;4991969;28;93306;-60
2023/09/28 03:06:05;;;;;;;7.60;4.70;;;;;;;;;;4990201;28;93667;-61
2023/09/28 03:08:31;;;;;;;9.63;4.47;;;;;;;;;;4990896;28;92572;-61
2023/09/28 03:10:58;;;;;;;6.90;4.45;;;;;;;;;;4990362;28;93005;-61
2023/09/28 03:13:26;;;;;;;6.80;3.90;;;;;;;;;;4990805;28;95908;-60
2023/09/28 03:15:53;;;;;;;7.65;4.30;;;;;;;;;;4987217;28;92809;-60
2023/09/28 03:18:20;;;;;;;9.10;4.57;;;;;;;;;;4990269;28;93099;-61
2023/09/28 03:20:48;;;;;;;8.20;4.32;;;;;;;;;;4993058;28;94380;-61
2023/09/28 03:23:14;;;;;;;6.93;4.50;;;;;;;;;;4990378;28;93342;-61
2023/09/28 03:25:42;;;;;;;8.90;4.18;;;;;;;;;;4991860;28;94312;-61
2023/09/28 03:28:09;;;;;;;4.18;3.78;;;;;;;;;;4989528;28;93255;-61
2023/09/28 03:30:35;;;;;;;9.80;4.30;;;;;;;;;;4989933;28;93386;-61
2023/09/28 03:33:02;;;;;;;6.95;4.80;;;;;;;;;;4989936;28;93440;-61
2023/09/28 03:35:28;;;;;;;8.52;4.20;;;;;;;;;;4991706;28;94526;-62
2023/09/28 03:37:57;;;;;;;5.53;3.97;;;;;;;;;;4990083;28;95184;-61
2023/09/28 03:40:24;;;;;;;8.98;4.50;;;;;;;;;;4987378;28;93439;-60
2023/09/28 03:42:50;;;;;;;7.05;4.57;;;;;;;;;;4990535;28;92680;-61
2023/09/28 03:45:20;;;;;;;7.43;4.53;;;;;;;;;;4990140;28;93451;-61
2023/09/28 03:47:48;;;;;;;7.30;4.43;;;;;;;;;;4991931;28;92959;-61
2023/09/28 03:50:15;;;;;;;13.95;4.57;;;;;;;;;;4989407;28;92948;-61
2023/09/28 03:52:42;;;;;;;7.93;4.32;;;;;;;;;;4990405;28;93449;-65
2023/09/28 03:55:09;;;;;;;8.75;4.82;;;;;;;;;;4991945;28;91717;-65
2023/09/28 03:57:36;;;;;;;7.97;4.50;;;;;;;;;;4992764;28;92472;-66
2023/09/28 04:00:04;;;;;;;8.27;4.30;;;;;;;;;;4990855;28;94616;-66
2023/09/28 04:02:31;;;;;;;7.63;4.43;;;;;;;;;;4989297;28;96858;-65
2023/09/28 04:04:57;;;;;;;10.30;4.97;;;;;;;;;;4995657;28;93999;-65
2023/09/28 04:07:24;;;;;;;6.13;4.38;;;;;;;;;;4989638;28;92595;-66
2023/09/28 04:09:50;;;;;;;5.82;4.15;;;;;;;;;;4991590;28;93438;-66
2023/09/28 04:12:17;;;;;;;14.43;4.90;;;;;;;;;;4993176;28;94728;-66
2023/09/28 04:14:43;;;;;;;7.30;4.55;;;;;;;;;;4992366;28;92796;-66
2023/09/28 04:17:09;;;;;;;9.18;4.50;;;;;;;;;;4990814;28;93143;-66
2023/09/28 04:19:36;;;;;;;6.43;4.10;;;;;;;;;;4989744;28;92721;-67
2023/09/28 04:22:02;;;;;;;8.15;4.43;;;;;;;;;;4990860;28;92731;-66
2023/09/28 04:24:29;;;;;;;7.68;4.18;;;;;;;;;;4992790;28;95155;-64
2023/09/28 04:26:58;;;;;;;5.82;4.38;;;;;;;;;;4993797;28;95860;-66
2023/09/28 04:29:24;;;;;;;6.70;4.45;;;;;;;;;;4989774;28;96635;-66
2023/09/28 04:31:51;;;;;;;7.15;5.00;;;;;;;;;;4993868;28;94491;-66
2023/09/28 04:34:18;;;;;;;7.72;4.80;;;;;;;;;;4993871;28;92463;-66
2023/09/28 04:36:45;;;;;;;9.43;5.55;;;;;;;;;;4992588;28;94477;-66
2023/09/28 04:39:11;;;;;;;11.05;5.30;;;;;;;;;;4990610;28;93508;-65
2023/09/28 04:41:38;;;;;;;12.23;5.20;;;;;;;;;;4994068;28;92644;-65
2023/09/28 04:44:05;;;;;;;8.90;4.78;;;;;;;;;;4994999;28;94659;-65
2023/09/28 04:46:31;;;;;;;12.95;5.50;;;;;;;;;;4995537;28;93635;-64
2023/09/28 04:48:59;;;;;;;9.95;5.57;;;;;;;;;;4995992;28;93120;-66
2023/09/28 04:51:25;;;;;;;6.65;4.50;;;;;;;;;;4988964;28;96897;-66
2023/09/28 04:53:52;;;;;;;13.88;6.18;;;;;;;;;;4994877;28;94488;-67
2023/09/28 04:56:18;;;;;;;12.25;5.68;;;;;;;;;;4990108;28;93221;-67
2023/09/28 04:58:45;;;;;;;13.73;5.68;;;;;;;;;;4994249;28;93402;-67
2023/09/28 05:01:12;;;;;;;8.65;5.50;;;;;;;;;;4994342;28;92473;-66
2023/09/28 05:03:38;;;;;;;9.90;5.88;;;;;;;;;;4994392;28;93101;-67
2023/09/28 05:06:05;;;;;;;19.17;5.93;;;;;;;;;;4993889;28;93462;-67
2023/09/28 05:08:31;;;;;;;15.70;6.20;;;;;;;;;;4993487;28;91838;-65
2023/09/28 05:10:58;;;;;;;11.18;5.28;;;;;;;;;;4997421;28;94235;-65
2023/09/28 05:13:27;;;;;;;10.50;6.05;;;;;;;;;;4992107;28;92561;-65
2023/09/28 05:15:54;;;;;;;9.70;5.82;;;;;;;;;;4992087;28;95650;-66
2023/09/28 05:18:20;;;;;;;10.93;5.80;;;;;;;;;;4994418;28;93096;-66
2023/09/28 05:20:46;;;;;;;12.45;6.05;;;;;;;;;;4994978;28;92552;-66
2023/09/28 05:23:13;;;;;;;14.50;5.97;;;;;;;;;;4992466;28;93167;-65
2023/09/28 05:25:40;;;;;;;14.88;5.50;;;;;;;;;;4992769;28;93119;-67
2023/09/28 05:28:06;;;;;;;17.33;5.05;;;;;;;;;;4991805;28;92977;-66
2023/09/28 05:30:32;;;;;;;25.85;5.70;;;;;;;;;;4997520;28;93197;-64
2023/09/28 05:33:00;;;;;;;17.33;5.00;;;;;;;;;;4995581;28;91976;-65
2023/09/28 05:35:26;;;;;;;25.42;5.38;;;;;;;;;;4989979;28;92470;-65
2023/09/28 05:37:52;;;;;;;20.38;5.22;;;;;;;;;;4993900;28;93579;-66
2023/09/28 05:40:19;;;;;;;21.20;5.53;;;;;;;;;;4996008;28;94834;-66
2023/09/28 05:42:45;;;;;;;30.70;5.93;;;;;;;;;;4987830;28;95202;-66
2023/09/28 05:45:12;;;;;;;22.52;4.43;;;;;;;;;;4992241;28;93540;-66
2023/09/28 05:47:39;;;;;;;24.98;4.78;;;;;;;;;;4987951;28;93895;-65
2023/09/28 05:50:05;;;;;;;35.25;5.30;;;;;;;;;;4994176;28;94157;-66
2023/09/28 05:52:33;;;;;;;40.10;5.88;;;;;;;;;;4996711;28;93287;-66
2023/09/28 05:54:59;;;;;;;30.55;4.65;;;;;;;;;;4990299;28;93448;-67
2023/09/28 05:57:25;;;;;;;34.67;4.72;;;;;;;;;;4989444;28;92735;-66
2023/09/28 05:59:52;;;;;;;28.13;4.53;;;;;;;;;;4992957;28;92865;-67
2023/09/28 06:02:21;;;;;;;25.17;4.57;;;;;;;;;;4990305;28;93143;-68
2023/09/28 06:04:50;;;;;;;26.27;5.00;;;;;;;;;;4990369;28;95823;-65
2023/09/28 06:07:16;;;;;;;36.08;5.90;;;;;;;;;;4990463;28;92736;-65
2023/09/28 06:09:42;;;;;;;30.45;4.97;;;;;;;;;;4987249;28;93130;-63
2023/09/28 06:12:09;;;;;;;25.15;4.20;;;;;;;;;;4988506;28;94361;-68
2023/09/28 06:14:35;;;;;;;29.77;4.97;;;;;;;;;;4994754;28;92535;-61
2023/09/28 06:17:02;;;;;;;31.17;5.28;;;;;;;;;;4993085;28;93459;-62
2023/09/28 06:19:28;;;;;;;38.42;5.97;;;;;;;;;;4991650;28;93120;-63
2023/09/28 06:21:55;;;;;;;33.47;5.15;;;;;;;;;;4994792;28;94330;-63
2023/09/28 06:24:21;;;;;;;32.78;5.20;;;;;;;;;;4993077;28;94238;-63
2023/09/28 06:26:50;;;;;;;30.13;5.68;;;;;;;;;;4992166;28;92736;-62
2023/09/28 06:29:17;;;;;;;41.17;6.40;;;;;;;;;;4988009;28;95606;-62
2023/09/28 06:31:43;;;;;;;27.52;4.13;;;;;;;;;;4992897;28;93503;-62
2023/09/28 06:34:10;;;;;;;29.83;4.40;;;;;;;;;;4992075;28;92616;-62
2023/09/28 06:36:37;;;;;;;34.28;5.93;;;;;;;;;;4995665;28;92452;-62
2023/09/28 06:39:08;;;;;;;27.67;4.32;;;;;;;;;;4991813;28;92696;-62
2023/09/28 06:41:35;;;;;;;30.75;4.85;;;;;;;;;;4993328;28;95629;-62
2023/09/28 06:44:01;;;;;;;32.65;5.35;;;;;;;;;;4990828;28;93284;-62
2023/09/28 06:46:28;;;;;;;24.70;4.68;;;;;;;;;;4992359;28;91850;-62
2023/09/28 06:48:55;;;;;;;32.35;5.20;;;;;;;;;;4992428;28;92934;-62
2023/09/28 06:51:22;;;;;;;32.95;5.78;;;;;;;;;;4991318;28;94060;-63
2023/09/28 06:53:48;;;;;;;37.17;5.82;;;;;;;;;;4991352;28;94858;-62
2023/09/28 06:56:16;;;;;;;27.33;5.43;;;;;;;;;;4992128;28;95455;-63
2023/09/28 06:58:43;;;;;;;32.35;5.50;;;;;;;;;;4996548;28;94600;-62
2023/09/28 07:01:09;;;;;;;25.33;4.82;;;;;;;;;;4992376;28;93386;-62
2023/09/28 07:03:36;;;;;;;39.22;5.32;;;;;;;;;;4988739;28;93982;-62
2023/09/28 07:06:04;;;;;;;28.98;4.97;;;;;;;;;;4990079;28;92452;-62
2023/09/28 07:08:30;;;;;;;34.83;4.47;;;;;;;;;;4989747;28;93335;-62
2023/09/28 07:10:57;;;;;;;33.42;4.22;;;;;;;;;;4989622;28;94185;-61
2023/09/28 07:13:24;;;;;;;25.00;4.45;;;;;;;;;;4990420;28;92398;-62
2023/09/28 07:15:51;;;;;;;26.40;4.93;;;;;;;;;;4990547;28;93652;-62
2023/09/28 07:18:17;;;;;;;31.00;4.82;;;;;;;;;;4991219;28;97746;-62
2023/09/28 07:20:44;;;;;;;29.63;5.32;;;;;;;;;;4994486;28;92729;-62
2023/09/28 07:23:10;;;;;;;46.38;5.53;;;;;;;;;;4991923;28;93757;-65
2023/09/28 07:25:37;;;;;;;37.03;6.15;;;;;;;;;;4992556;28;92488;-66
2023/09/28 07:28:04;;;;;;;31.95;5.75;;;;;;;;;;4988842;28;92949;-66
2023/09/28 07:30:30;;;;;;;37.78;5.22;;;;;;;;;;4992642;28;93392;-65
2023/09/28 07:32:57;;;;;;;41.45;5.55;;;;;;;;;;4992416;28;92652;-66
2023/09/28 07:35:23;;;;;;;30.92;5.03;;;;;;;;;;4989752;28;93161;-66
2023/09/28 07:37:50;;;;;;;34.97;4.95;;;;;;;;;;4992696;28;93596;-66
2023/09/28 07:40:17;;;;;;;29.13;5.38;;;;;;;;;;4995831;28;92553;-66
2023/09/28 07:42:59;;;;;;;31.27;5.00;;;;;;;;;;4987619;28;96153;-66
2023/09/28 07:45:25;;;;;;;37.97;6.25;;;;;;;;;;4990108;28;92553;-66
2023/09/28 07:47:52;;;;;;;32.30;6.35;;;;;;;;;;4990245;28;93187;-65
2023/09/28 07:50:18;;;;;;;33.95;5.15;;;;;;;;;;4992522;28;93494;-65
2023/09/28 07:52:45;;;;;;;29.08;5.00;;;;;;;;;;4992658;28;92546;-65
2023/09/28 07:55:13;;;;;;;35.75;5.70;;;;;;;;;;4992014;28;93214;-66
2023/09/28 07:57:40;;;;;;;26.98;4.03;;;;;;;;;;4986616;28;93794;-66
2023/09/28 08:00:23;;;;;;;39.45;5.88;;;;;;;;;;4990741;28;93442;-65
2023/09/28 08:02:49;;;;;;;38.50;6.07;;;;;;;;;;4989598;28;92511;-66
2023/09/28 08:05:15;;;;;;;32.60;5.00;;;;;;;;;;4995096;28;92662;-66
2023/09/28 08:07:42;;;;;;;34.03;5.95;;;;;;;;;;4989932;28;94939;-65
2023/09/28 08:10:22;;;;;;;33.15;6.88;;;;;;;;;;4991755;28;94480;-67
2023/09/28 08:12:48;;;;;;;35.83;7.25;;;;;;;;;;4991941;28;92568;-66
2023/09/28 08:15:15;;;;;;;32.17;5.75;;;;;;;;;;4990215;28;93500;-77
2023/09/28 08:18:01;;;;;;;35.58;5.78;;;;;;;;;;4992602;28;94035;-77
2023/09/28 08:20:27;;;;;;;31.73;5.97;;;;;;;;;;4992291;28;92458;-77
2023/09/28 08:22:57;;;;;;;28.48;5.13;;;;;;;;;;4986603;28;93716;-76
2023/09/28 08:25:24;;;;;;;37.47;6.30;;;;;;;;;;4991162;28;94438;-77
2023/09/28 08:27:51;;;;;;;33.50;5.47;;;;;;;;;;4996757;28;93510;-73
2023/09/28 08:30:17;;;;;;;30.17;5.53;;;;;;;;;;4992023;28;93231;-74
2023/09/28 08:32:45;;;;;;;35.20;6.13;;;;;;;;;;4988553;28;94858;-73
2023/09/28 08:35:11;;;;;;;39.08;6.88;;;;;;;;;;4990157;28;96557;-72
2023/09/28 08:37:38;;;;;;;38.83;5.65;;;;;;;;;;4986961;28;93830;-72
2023/09/28 08:40:05;;;;;;;29.00;4.90;;;;;;;;;;4991732;28;92543;-74
2023/09/28 08:42:31;;;;;;;30.77;4.80;;;;;;;;;;4990731;28;93338;-72
2023/09/28 08:45:02;;;;;;;36.38;5.68;;;;;;;;;;4991197;28;92382;-72
2023/09/28 08:47:41;;;;;;;30.02;5.57;;;;;;;;;;4992629;28;92685;-72
2023/09/28 08:50:09;;;;;;;39.60;5.78;;;;;;;;;;4986892;28;95295;-71
2023/09/28 08:52:36;;;;;;;31.80;5.82;;;;;;;;;;4989759;28;92620;-72
2023/09/28 08:55:04;;;;;;;21.63;4.15;;;;;;;;;;4990761;28;93117;-72
2023/09/28 08:57:30;;;;;;;31.80;4.75;;;;;;;;;;4989295;28;96222;-73
2023/09/28 08:59:57;;;;;;;27.67;4.78;;;;;;;;;;4990751;28;92789;-73
2023/09/28 09:02:24;;;;;;;20.92;4.70;;;;;;;;;;4989709;28;94188;-72
2023/09/28 09:04:52;;;;;;;23.42;5.20;;;;;;;;;;4990967;28;93406;-70
2023/09/28 09:07:20;;;;;;;27.50;4.32;;;;;;;;;;4991257;28;95179;-72
2023/09/28 09:09:46;;;;;;;34.83;6.20;;;;;;;;;;4994367;28;93496;-72
2023/09/28 09:12:13;;;;;;;27.73;4.93;;;;;;;;;;4988068;28;92886;-72
2023/09/28 09:14:39;;;;;;;34.03;6.13;;;;;;;;;;4990371;28;91816;-72
2023/09/28 09:17:06;;;;;;;27.02;5.10;;;;;;;;;;4995342;28;94817;-72
2023/09/28 09:19:38;;;;;;;37.72;5.30;;;;;;;;;;4991252;28;92606;-72
2023/09/28 09:22:04;;;;;;;31.63;5.78;;;;;;;;;;4993393;28;94882;-72
2023/09/28 09:24:51;;;;;;;29.90;5.38;;;;;;;;;;4994092;28;93299;-72
2023/09/28 09:27:24;;;;;;;38.47;6.00;;;;;;;;;;4991499;28;92496;-72
2023/09/28 09:29:50;;;;;;;24.63;4.68;;;;;;;;;;4993410;28;93171;-72
2023/09/28 09:32:20;;;;;;;30.75;5.15;;;;;;;;;;4991893;28;93074;-73
2023/09/28 09:34:47;;;;;;;32.72;5.05;;;;;;;;;;4990218;28;94227;-72
2023/09/28 09:37:14;;;;;;;29.23;5.13;;;;;;;;;;4992361;28;94487;-72
2023/09/28 09:39:40;;;;;;;31.30;5.57;;;;;;;;;;4991519;28;91675;-72
2023/09/28 09:42:08;;;;;;;33.30;4.50;;;;;;;;;;4994040;28;92504;-72
2023/09/28 09:44:34;;;;;;;37.58;5.55;;;;;;;;;;4990187;28;93693;-72
2023/09/28 09:47:02;;;;;;;29.05;4.90;;;;;;;;;;4995036;28;95130;-70
2023/09/28 09:49:29;;;;;;;27.45;5.25;;;;;;;;;;4994088;28;96196;-72
2023/09/28 09:51:58;;;;;;;22.83;4.70;;;;;;;;;;4996433;28;93390;-72
2023/09/28 09:54:25;;;;;;;32.60;6.13;;;;;;;;;;4992930;28;94004;-74
2023/09/28 09:56:52;;;;;;;37.47;4.95;;;;;;;;;;4994866;28;93460;-74
2023/09/28 09:59:20;;;;;;;28.15;5.60;;;;;;;;;;4994155;28;92572;-73
2023/09/28 10:01:48;;;;;;;26.35;4.70;;;;;;;;;;4990172;28;93156;-73
2023/09/28 10:04:16;;;;;;;28.63;5.50;;;;;;;;;;4986943;28;92973;-74
2023/09/28 10:06:51;;;;;;;29.48;5.32;;;;;;;;;;4992023;28;92793;-73
2023/09/28 10:09:20;;;;;;;32.53;5.72;;;;;;;;;;4990777;28;93234;-73
2023/09/28 10:11:49;;;;;;;32.45;4.85;;;;;;;;;;4991386;28;95797;-74
2023/09/28 10:14:16;;;;;;;32.17;4.85;;;;;;;;;;4993191;28;92492;-75
2023/09/28 10:16:44;;;;;;;31.45;4.78;;;;;;;;;;4990774;28;92738;-74
2023/09/28 10:19:15;;;;;;;25.10;4.68;;;;;;;;;;4992814;28;92555;-75
2023/09/28 10:21:41;;;;;;;34.45;4.70;;;;;;;;;;4992474;28;93833;-74
2023/09/28 10:24:11;;;;;;;40.17;6.07;;;;;;;;;;4990829;28;94363;-74
2023/09/28 10:26:41;;;;;;;28.13;4.80;;;;;;;;;;4988359;28;95576;-74
2023/09/28 10:29:07;;;;;;;;;;;;;;;;;;4987430;28;93235;-74
2023/09/28 10:31:40;;;;;;;24.88;5.22;;;;;;;;;;4992191;28;122380;-75
2023/09/28 10:34:24;;;;;;;37.77;5.97;;;;;;;;;;4989400;28;92585;-74
2023/09/28 10:37:07;;;;;;;28.05;5.40;;;;;;;;;;4991350;28;94959;-74
2023/09/28 10:39:34;;;;;;;31.23;5.13;;;;;;;;;;4993693;28;92428;-75
2023/09/28 10:42:04;;;;;;;24.25;4.95;;;;;;;;;;4992272;28;94413;-75
2023/09/28 10:44:31;;;;;;;29.67;5.32;;;;;;;;;;4992349;28;93461;-76
2023/09/28 10:46:58;;;;;;;26.00;4.60;;;;;;;;;;4990526;28;92667;-74
2023/09/28 10:49:26;;;;;;;30.20;5.25;;;;;;;;;;4987276;28;94255;-75
2023/09/28 10:51:55;;;;;;;34.28;5.68;;;;;;;;;;4993998;28;94416;-75
2023/09/28 10:54:24;;;;;;;28.65;5.53;;;;;;;;;;4993567;28;91674;-69
2023/09/28 10:56:50;;;;;;;30.17;5.97;;;;;;;;;;4992476;28;93955;-69
2023/09/28 10:59:17;;;;;;;26.10;5.43;;;;;;;;;;4996595;28;96745;-69
2023/09/28 11:01:45;;;;;;;33.38;6.03;;;;;;;;;;4986341;28;94966;-69
2023/09/28 11:04:15;;;;;;;46.78;5.72;;;;;;;;;;4987054;28;93051;-70
2023/09/28 11:06:43;;;;;;;22.75;4.68;;;;;;;;;;4989201;28;93888;-69
2023/09/28 11:09:12;;;;;;;28.25;5.57;;;;;;;;;;4995041;28;93335;-69
2023/09/28 11:11:40;;;;;;;28.95;4.32;;;;;;;;;;4991449;28;93415;-65
2023/09/28 11:14:06;;;;;;;33.85;5.57;;;;;;;;;;4990296;28;92594;-65
2023/09/28 11:16:38;;;;;;;25.55;4.63;;;;;;;;;;4992037;28;94364;-62
2023/09/28 11:19:05;;;;;;;25.35;4.93;;;;;;;;;;4993003;28;92658;-62
2023/09/28 11:21:32;;;;;;;28.70;4.60;;;;;;;;;;4992981;28;93296;-61
2023/09/28 11:23:59;;;;;;;23.30;4.80;;;;;;;;;;4993485;28;93467;-61
2023/09/28 11:26:26;;;;;;;25.15;4.55;;;;;;;;;;4986922;28;94858;-61
2023/09/28 11:28:54;;;;;;;21.80;4.93;;;;;;;;;;4993140;28;96603;-62
2023/09/28 11:31:21;;;;;;;24.63;4.20;;;;;;;;;;4989396;28;93348;-61
2023/09/28 11:33:47;;;;;;;19.45;3.80;;;;;;;;;;4988286;28;92542;-61
2023/09/28 11:36:16;;;;;;;26.13;4.28;;;;;;;;;;4991783;28;93166;-62
2023/09/28 11:38:43;;;;;;;25.35;5.03;;;;;;;;;;4993014;28;93482;-61
2023/09/28 11:41:09;;;;;;;30.52;4.65;;;;;;;;;;4992907;28;93189;-62
2023/09/28 11:43:46;;;;;;;19.10;4.07;;;;;;;;;;4990860;28;93659;-61
2023/09/28 11:46:13;;;;;;;19.38;4.90;;;;;;;;;;4991104;28;92932;-61
2023/09/28 11:48:39;;;;;;;23.63;3.92;;;;;;;;;;4992384;28;93266;-61
2023/09/28 11:51:06;;;;;;;29.67;4.75;;;;;;;;;;4986565;28;95537;-60
2023/09/28 11:53:33;;;;;;;25.95;4.25;;;;;;;;;;4992106;28;92411;-61
2023/09/28 11:56:00;;;;;;;21.92;4.47;;;;;;;;;;4992619;28;94213;-61
2023/09/28 11:58:26;;;;;;;23.17;4.43;;;;;;;;;;4992112;28;93367;-61
2023/09/28 12:00:52;;;;;;;29.77;5.13;;;;;;;;;;4990555;28;92530;-63
2023/09/28 12:03:19;;;;;;;18.98;3.67;;;;;;;;;;4995431;28;93796;-64
2023/09/28 12:05:47;;;;;;;26.92;4.43;;;;;;;;;;4992339;28;92553;-66
2023/09/28 12:08:13;;;;;;;27.05;4.78;;;;;;;;;;4992428;28;93145;-67
2023/09/28 12:10:40;;;;;;;29.30;4.97;;;;;;;;;;4993019;28;94360;-67
2023/09/28 12:13:06;;;;;;;24.88;4.45;;;;;;;;;;4989479;28;92501;-68
2023/09/28 12:15:33;;;;;;;26.60;5.00;;;;;;;;;;4989839;28;94882;-65
2023/09/28 12:17:59;;;;;;;27.30;4.90;;;;;;;;;;4991070;28;94471;-65
2023/09/28 12:20:25;;;;;;;25.50;5.18;;;;;;;;;;4988019;28;92638;-66
2023/09/28 12:22:52;;;;;;;27.15;4.40;;;;;;;;;;4990612;28;93250;-65
2023/09/28 12:25:18;;;;;;;23.08;3.85;;;;;;;;;;4985254;28;93396;-67
2023/09/28 12:27:45;;;;;;;26.15;4.47;;;;;;;;;;4992481;28;93288;-68
2023/09/28 12:30:18;;;;;;;28.08;4.72;;;;;;;;;;4990806;28;94437;-67
2023/09/28 12:32:45;;;;;;;20.20;4.53;;;;;;;;;;4986030;28;92210;-67
2023/09/28 12:35:12;;;;;;;24.25;5.05;;;;;;;;;;4990814;28;93444;-67
2023/09/28 12:37:39;;;;;;;20.42;4.40;;;;;;;;;;4989295;28;93425;-67
2023/09/28 12:40:11;;;;;;;23.40;5.50;;;;;;;;;;4990051;28;94969;-66
2023/09/28 12:42:39;;;;;;;32.35;5.25;;;;;;;;;;4987593;28;96763;-67
2023/09/28 12:45:06;;;;;;;24.63;5.05;;;;;;;;;;4981893;28;93382;-67
2023/09/28 12:47:32;;;;;;;22.02;4.43;;;;;;;;;;4990727;28;92630;-66
2023/09/28 12:49:59;;;;;;;24.20;4.28;;;;;;;;;;4993179;28;92492;-66
2023/09/28 12:52:26;;;;;;;29.67;4.63;;;;;;;;;;4990815;28;92717;-67
2023/09/28 12:54:53;;;;;;;25.60;4.68;;;;;;;;;;4988861;28;93131;-67
2023/09/28 12:57:20;;;;;;;19.33;4.47;;;;;;;;;;4992893;28;92759;-67
2023/09/28 12:59:46;;;;;;;25.50;4.45;;;;;;;;;;4992454;28;95980;-68
2023/09/28 13:02:13;;;;;;;24.20;3.80;;;;;;;;;;4993906;28;92835;-67
2023/09/28 13:04:40;;;;;;;18.83;3.92;;;;;;;;;;4989959;28;96616;-67
2023/09/28 13:07:07;;;;;;;22.45;4.35;;;;;;;;;;4995430;28;92522;-67
2023/09/28 13:09:33;;;;;;;20.25;4.10;;;;;;;;;;4997909;28;93146;-67
2023/09/28 13:12:00;;;;;;;22.60;4.05;;;;;;;;;;4988035;28;92861;-67
2023/09/28 13:14:26;;;;;;;13.95;3.60;;;;;;;;;;4992517;28;93311;-65
2023/09/28 13:16:57;;;;;;;23.75;3.92;;;;;;;;;;4994736;28;97617;-65
2023/09/28 13:19:25;;;;;;;16.35;4.05;;;;;;;;;;4991459;28;92514;-65
2023/09/28 13:21:52;;;;;;;18.58;4.40;;;;;;;;;;4988754;28;93240;-66
2023/09/28 13:24:21;;;;;;;15.60;3.72;;;;;;;;;;4991824;28;94296;-65
2023/09/28 13:26:48;;;;;;;19.65;3.53;;;;;;;;;;4993985;28;92438;-65
2023/09/28 13:29:17;;;;;;;22.23;4.15;;;;;;;;;;4989727;28;95360;-63
2023/09/28 13:31:43;;;;;;;27.00;4.47;;;;;;;;;;4989032;28;93942;-63
2023/09/28 13:34:14;;;;;;;19.50;3.88;;;;;;;;;;4990771;28;93056;-63
2023/09/28 13:36:44;;;;;;;19.48;3.85;;;;;;;;;;4986132;28;93415;-63
2023/09/28 13:41:58;;;;;;;18.35;3.53;;;;;;;;;;4989738;28;93685;-63
2023/09/28 13:44:25;;;;;;;21.17;4.05;;;;;;;;;;4993483;28;93260;-63
2023/09/28 13:46:53;;;;;;;14.27;3.38;;;;;;;;;;4993061;28;91837;-63
2023/09/28 13:49:21;;;;;;;21.75;4.13;;;;;;;;;;4993501;28;92601;-65
2023/09/28 13:51:47;;;;;;;19.33;3.70;;;;;;;;;;4995612;28;94001;-64
2023/09/28 13:54:15;;;;;;;18.20;3.67;;;;;;;;;;4992188;28;95196;-64
2023/09/28 13:56:41;;;;;;;16.38;3.53;;;;;;;;;;4991742;28;93784;-64
2023/09/28 13:59:09;;;;;;;23.63;4.28;;;;;;;;;;4993223;28;92663;-64
2023/09/28 14:01:37;;;;;;;16.25;3.33;;;;;;;;;;4993578;28;93219;-64
2023/09/28 14:04:05;;;;;;;17.33;3.70;;;;;;;;;;4990040;28;93427;-64
2023/09/28 14:06:31;;;;;;;18.10;3.78;;;;;;;;;;4991566;28;92617;-64
2023/09/28 14:08:59;;;;;;;12.90;3.60;;;;;;;;;;4990281;28;94194;-64
2023/09/28 14:11:25;;;;;;;22.00;4.47;;;;;;;;;;4995151;28;93700;-64
2023/09/28 14:13:52;;;;;;;14.80;2.92;;;;;;;;;;4996097;28;92607;-63
2023/09/28 14:16:18;;;;;;;19.48;2.88;;;;;;;;;;4992133;28;93435;-63
2023/09/28 14:18:45;;;;;;;11.73;3.17;;;;;;;;;;4986941;28;94902;-63
2023/09/28 14:21:11;;;;;;;18.67;3.28;;;;;;;;;;4992581;28;95177;-64
2023/09/28 14:23:39;;;;;;;18.10;4.00;;;;;;;;;;4992637;28;93399;-65
2023/09/28 14:26:06;;;;;;;14.82;3.53;;;;;;;;;;4993214;28;92425;-66
2023/09/28 14:28:32;;;;;;;17.33;3.65;;;;;;;;;;4990261;28;93304;-66
2023/09/28 14:30:59;;;;;;;15.13;3.10;;;;;;;;;;4989200;28;93458;-66
2023/09/28 14:33:25;;;;;;;16.63;3.90;;;;;;;;;;4992657;28;92556;-66
2023/09/28 14:35:54;;;;;;;21.55;3.97;;;;;;;;;;4997292;28;93331;-66
2023/09/28 14:38:20;;;;;;;13.75;4.20;;;;;;;;;;4989080;28;92869;-67